< < Back
Terminal Aerodrome Forecast


Current Version              Previous Versions:   1  2  3  4  5  6  7  8  9  

Terminal Aerodrome Forecast

023
FTUS42 KGSP 191400 AAA
TAFCLT
TAF AMD
KCLT 191458Z 1915/2012 35008KT P6SM FEW250
     FM192000 32004KT P6SM SKC
     FM200200 15003KT P6SM SKC=



Latest METAR

623
SAUS70 KWBC 200256
MTRCLT
METAR KCLT 200252Z 00000KT 10SM BKN250 12/06 A3013 RMK AO2 SLP202
T01220056 53010


USA.gov is the U.S. government's official web portal to all federal, state and local government web resources and services.